createdAt,value
2022-09-20T00:01:33.311Z,33.83
2022-09-20T00:04:05.507Z,32.38
2022-09-20T00:06:34.490Z,32.85
2022-09-20T00:09:03.527Z,33.40
2022-09-20T00:11:33.464Z,33.55
2022-09-20T00:14:05.965Z,33.72
2022-09-20T00:16:36.195Z,32.22
2022-09-20T00:19:05.449Z,32.65
2022-09-20T00:21:36.436Z,33.33
2022-09-20T00:24:04.661Z,32.53
2022-09-20T00:26:32.813Z,32.70
2022-09-20T00:29:02.437Z,33.72
2022-09-20T00:31:30.595Z,31.92
2022-09-20T00:34:17.331Z,30.13
2022-09-20T00:36:48.488Z,30.80
2022-09-20T00:39:17.312Z,30.45
2022-09-20T00:41:45.553Z,31.83
2022-09-20T00:44:49.069Z,32.40
2022-09-20T00:47:26.812Z,31.98
2022-09-20T00:50:00.683Z,32.55
2022-09-20T00:52:30.404Z,30.13
2022-09-20T00:55:00.144Z,31.40
2022-09-20T00:57:28.748Z,30.58
2022-09-20T00:59:58.939Z,30.33
2022-09-20T01:02:31.601Z,29.85
2022-09-20T01:05:00.380Z,31.48
2022-09-20T01:07:29.843Z,30.90
2022-09-20T01:09:58.773Z,30.60
2022-09-20T01:12:31.500Z,31.08
2022-09-20T01:15:03.880Z,31.08
2022-09-20T01:17:35.451Z,31.27
2022-09-20T01:20:13.198Z,32.15
2022-09-20T01:23:16.542Z,31.85
2022-09-20T01:26:17.692Z,30.83
2022-09-20T01:28:52.557Z,30.88
2022-09-20T01:31:26.651Z,29.98
2022-09-20T01:33:59.749Z,29.20
2022-09-20T01:36:40.359Z,30.75
2022-09-20T01:39:15.917Z,30.38
2022-09-20T01:41:50.522Z,30.60
2022-09-20T01:44:27.272Z,30.35
2022-09-20T01:47:02.137Z,30.17
2022-09-20T01:49:41.943Z,28.85
2022-09-20T01:52:48.328Z,29.42
2022-09-20T01:55:49.953Z,27.90
2022-09-20T01:58:37.074Z,27.48
2022-09-20T02:01:35.237Z,27.15
2022-09-20T02:04:20.463Z,28.00
2022-09-20T02:07:08.842Z,27.27
2022-09-20T02:10:04.012Z,28.27
2022-09-20T02:12:52.100Z,28.88
2022-09-20T02:15:49.137Z,27.38
2022-09-20T02:18:35.926Z,29.38
2022-09-20T02:21:11.553Z,29.85
2022-09-20T02:23:50.310Z,28.52
2022-09-20T02:26:40.378Z,29.00
2022-09-20T02:29:18.748Z,29.23
2022-09-20T02:32:07.168Z,27.10
2022-09-20T02:34:56.624Z,27.05
2022-09-20T02:37:46.874Z,30.40
2022-09-20T02:40:27.633Z,29.13
2022-09-20T02:43:04.221Z,27.92
2022-09-20T02:45:41.448Z,28.63
2022-09-20T02:48:12.052Z,27.48
2022-09-20T02:50:48.374Z,27.27
2022-09-20T02:53:31.196Z,27.60
2022-09-20T02:56:08.276Z,28.35
2022-09-20T02:58:47.541Z,28.00
2022-09-20T03:01:27.746Z,29.02
2022-09-20T03:04:09.176Z,27.88
2022-09-20T03:06:44.619Z,27.33
2022-09-20T03:09:19.455Z,27.38
2022-09-20T03:11:58.931Z,29.20
2022-09-20T03:14:32.558Z,27.60
2022-09-20T03:17:10.289Z,29.45
2022-09-20T03:19:50.062Z,28.10
2022-09-20T03:22:32.519Z,28.83
2022-09-20T03:25:21.800Z,27.00
2022-09-20T03:27:58.839Z,28.00
2022-09-20T03:30:39.760Z,28.33
2022-09-20T03:33:15.122Z,28.50
2022-09-20T03:35:56.919Z,28.48
2022-09-20T03:38:41.260Z,29.95
2022-09-20T03:41:38.755Z,30.00
2022-09-20T03:44:33.276Z,29.38
2022-09-20T03:47:11.023Z,31.45
2022-09-20T03:50:05.344Z,31.48
2022-09-20T03:53:07.984Z,34.72
2022-09-20T03:56:13.565Z,37.65
2022-09-20T03:58:58.452Z,49.20
2022-09-20T04:01:45.178Z,39.63
2022-09-20T04:04:20.159Z,35.83
2022-09-20T04:07:11.953Z,36.28
2022-09-20T04:09:56.785Z,32.20
2022-09-20T04:12:34.028Z,31.48
2022-09-20T04:15:17.566Z,31.35
2022-09-20T04:17:53.275Z,30.58
2022-09-20T04:20:29.701Z,29.35
2022-09-20T04:23:01.165Z,29.05
2022-09-20T04:25:34.767Z,29.05
2022-09-20T04:28:11.685Z,27.58
2022-09-20T04:30:44.092Z,29.20
2022-09-20T04:33:21.556Z,27.58
2022-09-20T04:36:19.211Z,28.42
2022-09-20T04:38:52.237Z,27.05
2022-09-20T04:41:43.897Z,26.17
2022-09-20T04:44:56.660Z,27.60
2022-09-20T04:47:49.687Z,27.20
2022-09-20T04:50:44.054Z,27.42
2022-09-20T04:53:45.960Z,27.85
2022-09-20T04:56:23.493Z,26.50
2022-09-20T04:59:07.885Z,26.75
2022-09-20T05:02:20.033Z,26.10
2022-09-20T05:05:18.976Z,27.42
2022-09-20T05:08:16.122Z,26.42
2022-09-20T05:11:19.633Z,26.23
2022-09-20T05:14:12.927Z,26.20
2022-09-20T05:16:58.584Z,27.70
2022-09-20T05:19:37.416Z,27.65
2022-09-20T05:22:43.158Z,26.83
2022-09-20T05:25:34.132Z,28.05
2022-09-20T05:28:08.032Z,29.25
2022-09-20T05:30:43.235Z,28.85
2022-09-20T05:33:23.723Z,27.77
2022-09-20T05:36:03.468Z,28.05
2022-09-20T05:38:42.228Z,27.20
2022-09-20T05:41:19.050Z,29.13
2022-09-20T05:43:55.965Z,28.08
2022-09-20T05:46:37.783Z,29.90
2022-09-20T05:49:17.891Z,29.88
2022-09-20T05:52:12.024Z,29.85
2022-09-20T05:55:01.736Z,29.40
2022-09-20T05:57:39.110Z,28.60
2022-09-20T06:00:11.349Z,29.63
2022-09-20T06:02:48.270Z,29.70
2022-09-20T06:05:19.854Z,29.50
2022-09-20T06:08:24.704Z,29.80
2022-09-20T06:11:21.827Z,30.85
2022-09-20T06:14:05.067Z,30.23
2022-09-20T06:16:41.614Z,30.85
2022-09-20T06:19:19.881Z,30.98
2022-09-20T06:21:53.150Z,29.30
2022-09-20T06:24:32.501Z,30.73
2022-09-20T06:27:05.017Z,30.17
2022-09-20T06:29:36.900Z,29.95
2022-09-20T06:32:05.207Z,30.15
2022-09-20T06:34:33.383Z,30.05
2022-09-20T06:37:32.981Z,29.30
2022-09-20T06:40:30.126Z,28.88
2022-09-20T06:43:00.384Z,28.20
2022-09-20T06:45:29.053Z,30.50
2022-09-20T06:47:57.279Z,29.25
2022-09-20T06:50:25.457Z,30.08
2022-09-20T06:52:55.159Z,30.75
2022-09-20T06:55:29.623Z,32.03
2022-09-20T06:57:57.999Z,30.85
2022-09-20T07:00:25.979Z,31.05
2022-09-20T07:02:53.954Z,29.15
2022-09-20T07:05:22.220Z,29.20
2022-09-20T07:07:50.497Z,28.58
2022-09-20T07:10:18.416Z,29.42
2022-09-20T07:12:48.660Z,30.00
2022-09-20T07:15:17.099Z,30.50
2022-09-20T07:17:46.152Z,30.70
2022-09-20T07:20:15.757Z,31.95
2022-09-20T07:22:46.408Z,31.60
2022-09-20T07:25:14.667Z,30.95
2022-09-20T07:27:42.742Z,31.40
2022-09-20T07:30:14.511Z,31.48
2022-09-20T07:32:42.788Z,28.75
2022-09-20T07:35:11.865Z,30.48
2022-09-20T07:37:41.334Z,29.75
2022-09-20T07:40:11.544Z,29.38
2022-09-20T07:42:39.765Z,24.35
2022-09-20T07:45:09.104Z,21.52
2022-09-20T07:47:41.225Z,20.88
2022-09-20T07:50:11.263Z,22.70
2022-09-20T07:52:39.271Z,21.02
2022-09-20T07:55:07.998Z,20.42
2022-09-20T07:57:37.518Z,18.77
2022-09-20T08:00:08.627Z,20.00
2022-09-20T08:02:38.111Z,13.00
2022-09-20T08:05:06.951Z,16.55
2022-09-20T08:07:34.856Z,18.13
2022-09-20T08:10:02.811Z,17.02
2022-09-20T08:15:18.735Z,14.60
2022-09-20T08:17:49.612Z,13.57
2022-09-20T08:20:19.492Z,7.20
2022-09-20T08:22:56.582Z,5.55
2022-09-20T08:25:34.998Z,8.57
2022-09-20T08:28:03.587Z,9.20
2022-09-20T08:30:31.737Z,6.68
2022-09-20T08:33:03.396Z,5.38
2022-09-20T08:35:31.433Z,4.80
2022-09-20T08:40:51.569Z,8.93
2022-09-20T08:43:22.341Z,8.23
2022-09-20T08:45:50.872Z,6.78
2022-09-20T08:48:28.309Z,7.30
2022-09-20T08:50:59.951Z,4.50
2022-09-20T08:53:28.992Z,20.10
2022-09-20T08:55:59.590Z,4.38
2022-09-20T08:58:28.712Z,7.18
2022-09-20T09:00:58.892Z,5.88
2022-09-20T09:03:29.342Z,4.18
2022-09-20T09:05:58.805Z,3.25
2022-09-20T09:08:31.024Z,8.52
2022-09-20T09:11:01.888Z,5.13
2022-09-20T09:13:37.718Z,4.43
2022-09-20T09:16:10.872Z,4.35
2022-09-20T09:18:42.148Z,4.15
2022-09-20T09:21:18.186Z,6.78
2022-09-20T09:23:52.746Z,10.30
2022-09-20T09:26:23.723Z,16.83
2022-09-20T09:29:17.087Z,5.32
2022-09-20T09:31:46.400Z,5.70
2022-09-20T09:34:27.126Z,6.95
2022-09-20T09:36:55.959Z,7.97
2022-09-20T09:39:28.437Z,10.15
2022-09-20T09:41:59.149Z,4.40
2022-09-20T09:44:29.229Z,5.97
2022-09-20T09:46:58.638Z,4.60
2022-09-20T09:49:34.041Z,4.85
2022-09-20T09:52:08.613Z,9.00
2022-09-20T09:54:39.569Z,7.10
2022-09-20T09:57:24.430Z,6.65
2022-09-20T10:00:13.785Z,3.67
2022-09-20T10:03:06.945Z,6.47
2022-09-20T10:05:53.223Z,5.60
2022-09-20T10:08:30.297Z,8.15
2022-09-20T10:11:10.210Z,7.28
2022-09-20T10:13:45.608Z,6.10
2022-09-20T10:16:22.009Z,5.90
2022-09-20T10:18:55.812Z,4.15
2022-09-20T10:21:43.656Z,6.38
2022-09-20T10:24:30.260Z,3.90
2022-09-20T10:27:19.137Z,7.18
2022-09-20T10:30:03.112Z,9.88
2022-09-20T10:32:45.825Z,4.30
2022-09-20T10:35:41.298Z,9.60
2022-09-20T10:38:19.687Z,13.05
2022-09-20T10:41:31.735Z,5.68
2022-09-20T10:44:32.923Z,6.43
2022-09-20T10:47:08.207Z,6.28
2022-09-20T10:49:41.289Z,5.50
2022-09-20T10:52:37.042Z,5.68
2022-09-20T10:55:25.566Z,4.97
2022-09-20T10:58:06.109Z,9.60
2022-09-20T11:00:46.852Z,4.97
2022-09-20T11:03:29.634Z,7.30
2022-09-20T11:06:15.159Z,5.47
2022-09-20T11:08:45.873Z,5.40
2022-09-20T11:11:22.069Z,10.05
2022-09-20T11:13:59.698Z,5.25
2022-09-20T11:16:34.199Z,5.97
2022-09-20T11:19:10.275Z,8.75
2022-09-20T11:21:45.412Z,5.43
2022-09-20T11:24:29.150Z,8.82
2022-09-20T11:27:02.063Z,5.63
2022-09-20T11:29:36.903Z,10.43
2022-09-20T11:32:13.946Z,11.02
2022-09-20T11:34:50.773Z,7.90
2022-09-20T11:37:20.014Z,7.20
2022-09-20T11:39:52.395Z,7.70
2022-09-20T11:42:26.471Z,3.40
2022-09-20T11:44:55.940Z,6.40
2022-09-20T11:47:52.862Z,5.82
2022-09-20T11:50:48.367Z,6.78
2022-09-20T11:53:36.658Z,6.53
2022-09-20T11:56:09.839Z,5.63
2022-09-20T11:58:48.428Z,7.15
2022-09-20T12:01:18.773Z,5.03
2022-09-20T12:04:00.230Z,6.30
2022-09-20T12:06:39.764Z,5.78
2022-09-20T12:09:24.458Z,8.43
2022-09-20T12:11:53.241Z,7.20
2022-09-20T12:14:26.355Z,3.88
2022-09-20T12:16:54.763Z,5.25
2022-09-20T12:19:41.189Z,7.28
2022-09-20T12:22:29.507Z,4.18
2022-09-20T12:25:34.597Z,6.18
2022-09-20T12:28:02.781Z,7.38
2022-09-20T12:30:33.972Z,6.07
2022-09-20T12:33:02.614Z,5.95
2022-09-20T12:36:14.483Z,4.10
2022-09-20T12:39:00.157Z,3.97
2022-09-20T12:41:29.316Z,5.05
2022-09-20T12:44:04.887Z,4.75
2022-09-20T12:46:38.152Z,4.40
2022-09-20T12:50:01.571Z,5.10
2022-09-20T12:52:55.573Z,5.18
2022-09-20T12:55:40.115Z,4.97
2022-09-20T12:58:23.839Z,3.92
2022-09-20T13:01:13.322Z,6.80
2022-09-20T13:03:44.717Z,5.47
2022-09-20T13:06:25.687Z,3.58
2022-09-20T13:09:06.168Z,3.08
2022-09-20T13:11:40.284Z,5.50
2022-09-20T13:14:13.330Z,6.90
2022-09-20T13:16:56.347Z,6.05
2022-09-20T13:19:29.838Z,7.40
2022-09-20T13:22:03.946Z,5.40
2022-09-20T13:24:38.223Z,5.22
2022-09-20T13:27:10.047Z,4.00
2022-09-20T13:29:41.284Z,5.40
2022-09-20T13:32:19.560Z,5.88
2022-09-20T13:35:06.538Z,2.85
2022-09-20T13:37:35.729Z,6.63
2022-09-20T13:40:04.834Z,4.00
2022-09-20T13:42:35.800Z,3.22
2022-09-20T13:45:04.984Z,4.68
2022-09-20T13:47:34.097Z,4.90
2022-09-20T13:50:14.160Z,4.80
2022-09-20T13:52:47.845Z,2.28
2022-09-20T13:55:28.559Z,2.83
2022-09-20T13:57:59.860Z,3.08
2022-09-20T14:00:29.154Z,3.20
2022-09-20T14:02:58.648Z,1.00
2022-09-20T14:05:30.910Z,3.80
2022-09-20T14:08:01.694Z,2.55
2022-09-20T14:10:33.229Z,5.32
2022-09-20T14:13:02.428Z,2.80
2022-09-20T14:15:35.445Z,1.13
2022-09-20T14:18:06.508Z,4.00
2022-09-20T14:20:36.329Z,2.22
2022-09-20T14:23:04.411Z,3.20
2022-09-20T14:25:33.448Z,2.30
2022-09-20T14:28:17.334Z,2.40
2022-09-20T14:30:47.392Z,1.73
2022-09-20T14:33:19.551Z,3.70
2022-09-20T14:35:50.850Z,3.78
2022-09-20T14:38:23.920Z,3.63
2022-09-20T14:40:52.864Z,5.05
2022-09-20T14:43:26.944Z,2.85
2022-09-20T14:45:57.728Z,3.58
2022-09-20T14:48:37.729Z,2.65
2022-09-20T14:51:25.469Z,3.00
2022-09-20T14:53:54.735Z,3.35
2022-09-20T14:56:34.956Z,2.15
2022-09-20T14:59:20.470Z,2.42
2022-09-20T15:01:59.332Z,3.05
2022-09-20T15:04:28.902Z,4.15
2022-09-20T15:07:02.738Z,3.20
2022-09-20T15:09:31.487Z,3.58
2022-09-20T15:12:07.214Z,5.10
2022-09-20T15:14:37.912Z,4.22
2022-09-20T15:17:07.289Z,3.92
2022-09-20T15:19:35.388Z,2.70
2022-09-20T15:22:05.222Z,2.83
2022-09-20T15:24:33.256Z,5.90
2022-09-20T15:27:01.786Z,4.75
2022-09-20T15:29:30.291Z,3.15
2022-09-20T15:31:58.965Z,2.65
2022-09-20T15:34:27.561Z,4.03
2022-09-20T15:36:55.722Z,4.60
2022-09-20T15:39:25.523Z,3.22
2022-09-20T15:41:54.126Z,3.85
2022-09-20T15:44:22.105Z,4.57
2022-09-20T15:46:52.650Z,4.45
2022-09-20T15:49:49.159Z,10.80
2022-09-20T15:52:27.841Z,5.05
2022-09-20T15:55:02.064Z,3.72
2022-09-20T15:57:30.114Z,4.35
2022-09-20T15:59:59.107Z,5.93
2022-09-20T16:02:27.770Z,4.22
2022-09-20T16:04:56.067Z,4.72
2022-09-20T16:07:27.123Z,3.72
2022-09-20T16:09:57.967Z,4.53
2022-09-20T16:12:26.880Z,5.18
2022-09-20T16:14:54.904Z,2.72
2022-09-20T16:17:43.748Z,3.85
2022-09-20T16:20:11.141Z,4.13
2022-09-20T16:22:39.171Z,3.95
2022-09-20T16:25:09.804Z,6.45
2022-09-20T16:27:37.831Z,4.93
2022-09-20T16:30:07.080Z,3.60
2022-09-20T16:32:38.120Z,4.43
2022-09-20T16:35:07.922Z,3.70
2022-09-20T16:37:37.006Z,2.67
2022-09-20T16:40:14.258Z,6.10
2022-09-20T16:42:42.324Z,6.07
2022-09-20T16:45:13.268Z,3.92
2022-09-20T16:47:41.592Z,5.70
2022-09-20T16:50:10.617Z,3.58
2022-09-20T16:52:39.150Z,7.03
2022-09-20T16:55:10.959Z,2.90
2022-09-20T16:57:39.113Z,5.78
2022-09-20T17:00:08.260Z,2.80
2022-09-20T17:02:36.227Z,4.40
2022-09-20T17:05:04.241Z,4.50
2022-09-20T17:07:33.746Z,6.35
2022-09-20T17:10:01.924Z,5.18
2022-09-20T17:12:34.016Z,5.03
2022-09-20T17:15:01.912Z,2.30
2022-09-20T17:17:30.057Z,4.53
2022-09-20T17:19:58.552Z,6.40
2022-09-20T17:22:26.594Z,7.68
2022-09-20T17:24:54.952Z,5.65
2022-09-20T17:27:24.001Z,6.32
2022-09-20T17:29:53.585Z,5.53
2022-09-20T17:32:23.952Z,10.55
2022-09-20T17:34:52.266Z,6.13
2022-09-20T17:37:22.249Z,4.10
2022-09-20T17:39:50.390Z,1.98
2022-09-20T17:42:19.118Z,3.65
2022-09-20T17:44:48.208Z,5.38
2022-09-20T17:47:19.906Z,5.53
2022-09-20T17:49:47.983Z,5.65
2022-09-20T17:52:15.993Z,5.32
2022-09-20T17:54:46.230Z,7.15
2022-09-20T17:57:14.234Z,5.40
2022-09-20T17:59:42.249Z,2.75
2022-09-20T18:02:11.080Z,3.85
2022-09-20T18:04:42.855Z,3.38
2022-09-20T18:07:11.105Z,4.85
2022-09-20T18:09:39.667Z,3.58
2022-09-20T18:12:07.915Z,7.70
2022-09-20T18:14:36.384Z,2.47
2022-09-20T18:17:05.465Z,7.55
2022-09-20T18:19:35.900Z,4.80
2022-09-20T18:22:06.893Z,7.07
2022-09-20T18:24:35.432Z,4.72
2022-09-20T18:27:04.588Z,6.07
2022-09-20T18:29:36.906Z,3.97
2022-09-20T18:32:05.440Z,6.65
2022-09-20T18:34:34.044Z,2.10
2022-09-20T18:37:06.051Z,4.60
2022-09-20T18:39:37.143Z,8.10
2022-09-20T18:42:07.772Z,2.40
2022-09-20T18:44:36.462Z,8.27
2022-09-20T18:47:05.489Z,3.90
2022-09-20T18:49:34.439Z,3.40
2022-09-20T18:52:05.496Z,7.90
2022-09-20T18:54:33.768Z,4.00
2022-09-20T18:57:02.872Z,10.30
2022-09-20T18:59:31.906Z,11.95
2022-09-20T19:02:24.841Z,12.00
2022-09-20T19:05:08.492Z,12.80
2022-09-20T19:07:49.905Z,8.43
2022-09-20T19:10:27.978Z,19.80
2022-09-20T19:13:03.503Z,12.20
2022-09-20T19:15:45.305Z,18.20
2022-09-20T19:18:34.146Z,18.55
2022-09-20T19:21:14.310Z,20.02
2022-09-20T19:24:03.538Z,15.73
2022-09-20T19:26:37.938Z,18.60
2022-09-20T19:29:18.006Z,24.45
2022-09-20T19:31:48.251Z,26.60
2022-09-20T19:34:20.313Z,23.67
2022-09-20T19:37:02.013Z,19.75
2022-09-20T19:39:47.928Z,22.30
2022-09-20T19:42:24.643Z,28.08
2022-09-20T19:45:04.298Z,23.08
2022-09-20T19:47:42.368Z,22.35
2022-09-20T19:50:18.128Z,19.33
2022-09-20T19:52:46.636Z,20.75
2022-09-20T19:55:17.742Z,17.50
2022-09-20T19:57:47.929Z,17.90
2022-09-20T20:00:18.482Z,21.27
2022-09-20T20:02:47.684Z,22.38
2022-09-20T20:05:18.632Z,22.98
2022-09-20T20:07:51.884Z,22.42
2022-09-20T20:10:28.013Z,22.15
2022-09-20T20:13:03.514Z,31.17
2022-09-20T20:15:44.312Z,29.85
2022-09-20T20:18:20.805Z,30.15
2022-09-20T20:20:51.743Z,33.33
2022-09-20T20:23:42.253Z,34.35
2022-09-20T20:26:23.397Z,31.75
2022-09-20T20:28:52.801Z,31.65
2022-09-20T20:31:20.994Z,29.55
2022-09-20T20:33:49.592Z,27.70
2022-09-20T20:36:18.192Z,24.80
2022-09-20T20:38:49.872Z,23.88
2022-09-20T20:41:21.780Z,22.42
2022-09-20T20:43:57.256Z,24.60
2022-09-20T20:46:26.348Z,25.77
2022-09-20T20:48:54.409Z,25.20
2022-09-20T20:51:23.840Z,24.15
2022-09-20T20:53:53.878Z,27.15
2022-09-20T20:56:25.788Z,27.58
2022-09-20T20:58:54.070Z,30.25
2022-09-20T21:01:24.042Z,30.45
2022-09-20T21:03:54.749Z,30.90
2022-09-20T21:06:24.955Z,32.13
2022-09-20T21:08:53.479Z,30.50
2022-09-20T21:11:25.510Z,30.48
2022-09-20T21:13:54.031Z,28.75
2022-09-20T21:16:23.882Z,31.05
2022-09-20T21:18:52.124Z,31.75
2022-09-20T21:21:21.483Z,30.10
2022-09-20T21:23:51.433Z,28.00
2022-09-20T21:26:22.474Z,28.67
2022-09-20T21:28:52.631Z,28.88
2022-09-20T21:31:21.789Z,31.67
2022-09-20T21:33:50.116Z,31.17
2022-09-20T21:36:20.253Z,32.25
2022-09-20T21:38:48.412Z,31.30
2022-09-20T21:41:18.363Z,28.60
2022-09-20T21:43:48.857Z,33.00
2022-09-20T21:46:18.925Z,33.67
2022-09-20T21:48:47.587Z,32.97
2022-09-20T21:51:18.226Z,34.15
2022-09-20T21:53:46.426Z,33.63
2022-09-20T21:56:16.253Z,35.22
2022-09-20T21:58:46.041Z,34.67
2022-09-20T22:01:18.514Z,34.17
2022-09-20T22:03:48.874Z,34.10
2022-09-20T22:06:18.341Z,33.60
2022-09-20T22:08:48.577Z,34.60
2022-09-20T22:11:17.614Z,35.47
2022-09-20T22:13:47.255Z,34.10
2022-09-20T22:16:19.911Z,34.25
2022-09-20T22:18:48.321Z,35.33
2022-09-20T22:21:18.973Z,36.28
2022-09-20T22:23:50.953Z,35.92
2022-09-20T22:26:20.687Z,36.10
2022-09-20T22:28:50.068Z,33.72
2022-09-20T22:31:21.619Z,36.47
2022-09-20T22:33:51.895Z,36.20
2022-09-20T22:36:22.389Z,36.40
2022-09-20T22:38:50.778Z,36.60
2022-09-20T22:41:20.567Z,35.47
2022-09-20T22:43:49.074Z,35.15
2022-09-20T22:46:19.874Z,35.70
2022-09-20T22:48:48.311Z,34.13
2022-09-20T22:51:18.114Z,33.72
2022-09-20T22:53:46.824Z,33.42
2022-09-20T22:56:16.784Z,33.70
2022-09-20T22:58:46.596Z,33.60
2022-09-20T23:01:16.593Z,32.70
2022-09-20T23:03:48.508Z,33.30
2022-09-20T23:06:20.908Z,31.75
2022-09-20T23:08:49.672Z,32.67
2022-09-20T23:11:18.836Z,32.30
2022-09-20T23:13:48.131Z,33.40
2022-09-20T23:16:19.257Z,31.95
2022-09-20T23:18:52.601Z,32.85
2022-09-20T23:21:21.811Z,32.92
2022-09-20T23:23:54.305Z,33.10
2022-09-20T23:26:22.642Z,34.65
2022-09-20T23:28:55.854Z,35.28
2022-09-20T23:31:24.808Z,36.40
2022-09-20T23:33:56.562Z,36.42
2022-09-20T23:36:26.530Z,35.97
2022-09-20T23:38:54.766Z,35.05
2022-09-20T23:41:24.838Z,35.67
2022-09-20T23:43:53.245Z,36.47
2022-09-20T23:46:23.659Z,36.67
2022-09-20T23:48:53.341Z,38.97
2022-09-20T23:51:22.933Z,36.25
2022-09-20T23:53:51.627Z,34.95
2022-09-20T23:56:21.183Z,36.25
2022-09-20T23:58:50.319Z,35.88
